createdAt,value
2022-09-17T00:01:25.277Z,2.10
2022-09-17T00:03:54.039Z,2.10
2022-09-17T00:06:22.625Z,2.10
2022-09-17T00:08:50.524Z,1.90
2022-09-17T00:11:29.977Z,2.00
2022-09-17T00:13:59.981Z,1.60
2022-09-17T00:16:43.003Z,2.50
2022-09-17T00:19:16.496Z,2.10
2022-09-17T00:21:43.635Z,2.00
2022-09-17T00:24:12.329Z,2.20
2022-09-17T00:26:39.382Z,2.40
2022-09-17T00:29:06.968Z,2.10
2022-09-17T00:31:35.084Z,2.30
2022-09-17T00:34:03.913Z,2.00
2022-09-17T00:36:32.034Z,2.60
2022-09-17T00:39:00.642Z,2.10
2022-09-17T00:41:32.164Z,2.20
2022-09-17T00:44:02.192Z,2.00
2022-09-17T00:46:38.205Z,2.20
2022-09-17T00:49:11.694Z,1.70
2022-09-17T00:51:46.187Z,2.30
2022-09-17T00:54:13.617Z,2.10
2022-09-17T00:56:43.767Z,2.50
2022-09-17T00:59:11.190Z,1.90
2022-09-17T01:01:39.236Z,2.00
2022-09-17T01:04:06.453Z,2.50
2022-09-17T01:06:47.320Z,2.10
2022-09-17T01:09:39.981Z,2.00
2022-09-17T01:12:27.301Z,2.00
2022-09-17T01:15:32.110Z,1.80
2022-09-17T01:18:44.254Z,2.00
2022-09-17T01:21:41.821Z,2.00
2022-09-17T01:24:28.294Z,1.70
2022-09-17T01:27:29.936Z,1.80
2022-09-17T01:30:25.967Z,1.70
2022-09-17T01:33:01.405Z,2.10
2022-09-17T01:35:46.587Z,1.70
2022-09-17T01:38:15.497Z,2.20
2022-09-17T01:41:07.963Z,1.90
2022-09-17T01:44:21.174Z,2.10
2022-09-17T01:46:56.389Z,1.90
2022-09-17T01:49:25.759Z,1.90
2022-09-17T01:51:55.023Z,2.10
2022-09-17T01:54:30.176Z,2.30
2022-09-17T01:57:04.065Z,2.20
2022-09-17T01:59:33.650Z,1.90
2022-09-17T02:02:14.027Z,2.10
2022-09-17T02:05:02.538Z,2.00
2022-09-17T02:07:32.222Z,2.20
2022-09-17T02:10:09.054Z,2.10
2022-09-17T02:12:48.321Z,2.00
2022-09-17T02:15:22.655Z,2.10
2022-09-17T02:18:03.171Z,1.90
2022-09-17T02:20:48.780Z,2.10
2022-09-17T02:23:25.521Z,2.10
2022-09-17T02:26:10.780Z,2.30
2022-09-17T02:29:14.544Z,2.20
2022-09-17T02:31:42.668Z,2.10
2022-09-17T02:34:11.470Z,1.90
2022-09-17T02:36:38.515Z,2.10
2022-09-17T02:39:05.621Z,2.40
2022-09-17T02:41:51.111Z,1.80
2022-09-17T02:44:32.109Z,2.10
2022-09-17T02:47:44.659Z,1.90
2022-09-17T02:50:18.672Z,2.00
2022-09-17T02:53:12.540Z,1.70
2022-09-17T02:56:21.591Z,2.00
2022-09-17T02:59:19.951Z,2.10
2022-09-17T03:02:13.726Z,2.10
2022-09-17T03:04:41.783Z,2.00
2022-09-17T03:07:12.147Z,2.00
2022-09-17T03:09:39.597Z,2.10
2022-09-17T03:12:07.118Z,2.20
2022-09-17T03:14:34.164Z,2.20
2022-09-17T03:17:01.285Z,2.00
2022-09-17T03:19:28.273Z,1.80
2022-09-17T03:21:55.543Z,2.10
2022-09-17T03:24:22.720Z,2.00
2022-09-17T03:26:49.654Z,2.10
2022-09-17T03:29:17.264Z,2.00
2022-09-17T03:31:44.359Z,1.90
2022-09-17T03:34:11.852Z,1.80
2022-09-17T03:36:38.907Z,2.50
2022-09-17T03:39:06.110Z,1.80
2022-09-17T03:41:33.169Z,1.80
2022-09-17T03:44:00.138Z,1.70
2022-09-17T03:46:27.416Z,2.10
2022-09-17T03:48:54.425Z,2.10
2022-09-17T03:51:21.452Z,2.20
2022-09-17T03:53:48.518Z,1.80
2022-09-17T03:56:15.533Z,1.90
2022-09-17T03:58:42.453Z,2.10
2022-09-17T04:01:09.626Z,2.00
2022-09-17T04:03:36.847Z,2.30
2022-09-17T04:06:03.947Z,2.10
2022-09-17T04:08:30.965Z,2.00
2022-09-17T04:10:58.010Z,2.00
2022-09-17T04:13:24.949Z,2.00
2022-09-17T04:15:52.384Z,2.00
2022-09-17T04:18:19.441Z,1.90
2022-09-17T04:20:46.408Z,2.40
2022-09-17T04:23:13.667Z,2.00
2022-09-17T04:25:40.670Z,2.00
2022-09-17T04:28:07.802Z,2.10
2022-09-17T04:30:34.997Z,1.90
2022-09-17T04:33:02.833Z,2.40
2022-09-17T04:35:30.186Z,2.10
2022-09-17T04:37:58.617Z,2.20
2022-09-17T04:40:27.651Z,2.40
2022-09-17T04:42:56.610Z,2.40
2022-09-17T04:45:23.782Z,2.10
2022-09-17T04:47:53.495Z,2.00
2022-09-17T04:50:21.509Z,2.30
2022-09-17T04:52:48.787Z,1.60
2022-09-17T04:55:16.363Z,1.60
2022-09-17T04:57:51.569Z,2.20
2022-09-17T05:00:20.173Z,2.10
2022-09-17T05:02:49.948Z,2.10
2022-09-17T05:05:18.838Z,1.80
2022-09-17T05:07:46.395Z,2.90
2022-09-17T05:10:16.106Z,3.20
2022-09-17T05:12:51.199Z,2.50
2022-09-17T05:15:19.150Z,2.90
2022-09-17T05:17:47.049Z,3.30
2022-09-17T05:20:15.802Z,2.40
2022-09-17T05:22:48.718Z,2.40
2022-09-17T05:25:18.211Z,1.90
2022-09-17T05:27:45.851Z,2.50
2022-09-17T05:30:13.499Z,2.30
2022-09-17T05:32:41.115Z,2.30
2022-09-17T05:35:09.546Z,2.00
2022-09-17T05:37:37.486Z,2.00
2022-09-17T05:40:08.396Z,2.20
2022-09-17T05:42:35.589Z,2.20
2022-09-17T05:45:03.043Z,2.20
2022-09-17T05:47:30.389Z,1.90
2022-09-17T05:49:57.361Z,2.30
2022-09-17T05:52:28.254Z,2.20
2022-09-17T05:54:56.642Z,1.90
2022-09-17T05:57:24.108Z,2.20
2022-09-17T05:59:51.172Z,2.10
2022-09-17T06:02:18.219Z,1.90
2022-09-17T06:04:46.506Z,2.10
2022-09-17T06:07:13.832Z,2.10
2022-09-17T06:09:41.284Z,2.10
2022-09-17T06:12:08.691Z,2.00
2022-09-17T06:14:35.699Z,2.00
2022-09-17T06:17:02.684Z,2.30
2022-09-17T06:19:29.685Z,1.90
2022-09-17T06:21:56.631Z,1.70
2022-09-17T06:24:23.623Z,1.90
2022-09-17T06:26:52.655Z,2.20
2022-09-17T06:29:20.426Z,2.20
2022-09-17T06:31:49.254Z,2.30
2022-09-17T06:34:17.846Z,2.20
2022-09-17T06:36:44.802Z,2.20
2022-09-17T06:39:12.018Z,2.30
2022-09-17T06:41:39.408Z,2.00
2022-09-17T06:44:06.376Z,2.50
2022-09-17T06:46:33.403Z,2.20
2022-09-17T06:49:00.722Z,2.70
2022-09-17T06:51:27.857Z,2.20
2022-09-17T06:53:54.915Z,2.30
2022-09-17T06:56:21.842Z,2.10
2022-09-17T06:58:48.806Z,1.80
2022-09-17T07:01:15.939Z,2.40
2022-09-17T07:03:43.789Z,2.10
2022-09-17T07:06:11.349Z,1.90
2022-09-17T07:08:40.077Z,2.00
2022-09-17T07:11:08.200Z,2.20
2022-09-17T07:13:35.711Z,2.50
2022-09-17T07:16:05.285Z,2.10
2022-09-17T07:18:33.060Z,2.00
2022-09-17T07:21:02.264Z,3.20
2022-09-17T07:23:32.370Z,2.80
2022-09-17T07:26:02.133Z,2.20
2022-09-17T07:28:29.749Z,2.30
2022-09-17T07:30:57.485Z,2.80
2022-09-17T07:33:27.967Z,2.30
2022-09-17T07:36:02.956Z,2.20
2022-09-17T07:38:31.289Z,1.90
2022-09-17T07:40:59.603Z,2.00
2022-09-17T07:43:36.051Z,2.40
2022-09-17T07:46:05.339Z,2.00
2022-09-17T07:48:33.145Z,2.20
2022-09-17T07:51:00.613Z,2.50
2022-09-17T07:53:27.714Z,2.70
2022-09-17T07:55:56.337Z,2.30
2022-09-17T07:58:25.301Z,2.80
2022-09-17T08:00:52.283Z,2.80
2022-09-17T08:03:19.239Z,2.30
2022-09-17T08:05:46.261Z,2.30
2022-09-17T08:08:14.229Z,2.50
2022-09-17T08:10:43.398Z,2.30
2022-09-17T08:13:10.357Z,2.90
2022-09-17T08:15:37.349Z,3.10
2022-09-17T08:18:04.377Z,2.80
2022-09-17T08:20:31.287Z,2.90
2022-09-17T08:23:00.633Z,2.80
2022-09-17T08:25:27.627Z,2.50
2022-09-17T08:27:56.677Z,2.50
2022-09-17T08:30:24.139Z,2.30
2022-09-17T08:32:51.148Z,2.70
2022-09-17T08:35:18.186Z,2.50
2022-09-17T08:37:47.616Z,2.60
2022-09-17T08:40:22.597Z,2.50
2022-09-17T08:43:02.557Z,3.20
2022-09-17T08:45:30.180Z,2.60
2022-09-17T08:48:03.192Z,3.20
2022-09-17T08:50:39.289Z,2.40
2022-09-17T08:53:38.776Z,2.50
2022-09-17T08:56:16.288Z,2.00
2022-09-17T08:58:56.782Z,2.50
2022-09-17T09:01:39.051Z,2.70
2022-09-17T09:04:26.846Z,2.50
2022-09-17T09:07:00.536Z,2.60
2022-09-17T09:09:50.756Z,2.80
2022-09-17T09:12:28.444Z,2.90
2022-09-17T09:15:23.329Z,2.70
2022-09-17T09:17:52.075Z,2.30
2022-09-17T09:20:32.432Z,2.20
2022-09-17T09:23:07.584Z,2.30
2022-09-17T09:25:48.725Z,2.00
2022-09-17T09:28:38.808Z,2.00
2022-09-17T09:31:30.680Z,1.70
2022-09-17T09:33:58.654Z,1.60
2022-09-17T09:36:29.474Z,1.90
2022-09-17T09:39:02.504Z,1.70
2022-09-17T09:41:37.721Z,2.00
2022-09-17T09:44:10.937Z,1.90
2022-09-17T09:47:03.953Z,1.70
2022-09-17T09:50:06.750Z,1.80
2022-09-17T09:52:59.909Z,1.80
2022-09-17T09:55:51.556Z,2.00
2022-09-17T09:58:32.781Z,1.60
2022-09-17T10:00:59.776Z,1.50
2022-09-17T10:03:32.825Z,2.20
2022-09-17T10:06:06.218Z,2.30
2022-09-17T10:08:39.267Z,1.70
2022-09-17T10:11:20.625Z,1.60
2022-09-17T10:13:47.887Z,2.20
2022-09-17T10:16:19.588Z,1.90
2022-09-17T10:18:48.621Z,2.00
2022-09-17T10:21:31.869Z,2.10
2022-09-17T10:24:00.119Z,2.50
2022-09-17T10:26:30.928Z,2.30
2022-09-17T10:29:02.615Z,2.50
2022-09-17T10:31:54.110Z,2.30
2022-09-17T10:34:27.246Z,2.20
2022-09-17T10:36:58.678Z,2.30
2022-09-17T10:39:44.527Z,2.00
2022-09-17T10:42:11.409Z,2.20
2022-09-17T10:44:39.765Z,2.30
2022-09-17T10:47:14.513Z,2.00
2022-09-17T10:49:47.213Z,2.20
2022-09-17T10:52:29.554Z,3.10
2022-09-17T10:55:18.229Z,7.00
2022-09-17T10:58:04.132Z,8.30
2022-09-17T11:00:55.678Z,5.20
2022-09-17T11:03:37.786Z,5.30
2022-09-17T11:06:26.022Z,19.00
2022-09-17T11:09:04.989Z,10.30
2022-09-17T11:12:09.364Z,7.30
2022-09-17T11:15:03.958Z,5.60
2022-09-17T11:17:47.034Z,5.30
2022-09-17T11:20:44.549Z,3.90
2022-09-17T11:23:39.006Z,3.20
2022-09-17T11:26:45.605Z,2.60
2022-09-17T11:29:27.372Z,3.10
2022-09-17T11:32:15.764Z,2.50
2022-09-17T11:34:51.238Z,3.10
2022-09-17T11:37:28.695Z,3.10
2022-09-17T11:40:00.924Z,3.10
2022-09-17T11:42:45.859Z,2.40
2022-09-17T11:45:19.380Z,2.20
2022-09-17T11:47:53.355Z,2.70
2022-09-17T11:50:30.122Z,2.90
2022-09-17T11:53:03.098Z,2.20
2022-09-17T11:55:48.071Z,3.30
2022-09-17T11:58:26.415Z,2.10
2022-09-17T12:01:03.024Z,2.40
2022-09-17T12:03:32.749Z,2.40
2022-09-17T12:06:08.241Z,2.60
2022-09-17T12:09:00.485Z,2.90
2022-09-17T12:11:55.992Z,2.60
2022-09-17T12:14:28.165Z,2.80
2022-09-17T12:17:01.329Z,3.30
2022-09-17T12:19:44.245Z,3.00
2022-09-17T12:22:21.523Z,2.80
2022-09-17T12:24:52.094Z,2.80
2022-09-17T12:27:45.961Z,3.00
2022-09-17T12:30:22.838Z,2.80
2022-09-17T12:33:13.559Z,2.80
2022-09-17T12:36:17.923Z,2.90
2022-09-17T12:39:03.813Z,2.70
2022-09-17T12:41:46.566Z,2.40
2022-09-17T12:44:35.755Z,2.90
2022-09-17T12:47:20.662Z,2.70
2022-09-17T12:50:06.534Z,2.60
2022-09-17T12:53:03.602Z,2.80
2022-09-17T12:56:12.429Z,2.50
2022-09-17T12:59:07.146Z,2.60
2022-09-17T13:01:53.218Z,2.60
2022-09-17T13:04:38.351Z,2.70
2022-09-17T13:07:52.874Z,2.60
2022-09-17T13:10:41.498Z,2.80
2022-09-17T13:13:34.589Z,3.20
2022-09-17T13:16:18.359Z,3.10
2022-09-17T13:19:16.184Z,3.10
2022-09-17T13:21:52.945Z,3.10
2022-09-17T13:24:22.773Z,2.60
2022-09-17T13:26:49.909Z,3.30
2022-09-17T13:29:46.252Z,3.00
2022-09-17T13:32:35.690Z,3.20
2022-09-17T13:35:11.225Z,3.10
2022-09-17T13:37:55.218Z,3.10
2022-09-17T13:40:26.639Z,3.70
2022-09-17T13:43:02.934Z,3.20
2022-09-17T13:45:32.249Z,3.10
2022-09-17T13:48:02.848Z,3.30
2022-09-17T13:50:37.181Z,3.20
2022-09-17T13:53:28.083Z,3.20
2022-09-17T13:56:01.402Z,2.70
2022-09-17T13:58:30.345Z,3.10
2022-09-17T14:01:11.939Z,3.30
2022-09-17T14:03:43.822Z,2.80
2022-09-17T14:06:21.297Z,2.60
2022-09-17T14:08:50.780Z,3.00
2022-09-17T14:11:23.973Z,3.20
2022-09-17T14:13:51.945Z,2.90
2022-09-17T14:16:42.851Z,3.10
2022-09-17T14:19:15.946Z,3.00
2022-09-17T14:21:44.613Z,2.90
2022-09-17T14:24:40.480Z,2.90
2022-09-17T14:27:29.204Z,2.60
2022-09-17T14:30:03.016Z,2.70
2022-09-17T14:32:54.515Z,3.00
2022-09-17T14:35:37.690Z,2.70
2022-09-17T14:38:39.945Z,2.40
2022-09-17T14:41:20.413Z,3.10
2022-09-17T14:44:04.504Z,3.70
2022-09-17T14:46:38.002Z,3.10
2022-09-17T14:49:25.001Z,2.70
2022-09-17T14:51:56.782Z,2.80
2022-09-17T14:54:35.844Z,3.00
2022-09-17T14:57:24.243Z,2.60
2022-09-17T14:59:55.341Z,2.90
2022-09-17T15:02:25.031Z,2.60
2022-09-17T15:04:52.075Z,2.50
2022-09-17T15:07:21.658Z,2.00
2022-09-17T15:09:50.444Z,2.80
2022-09-17T15:12:26.221Z,2.00
2022-09-17T15:14:55.514Z,3.20
2022-09-17T15:17:24.126Z,2.60
2022-09-17T15:19:58.646Z,2.90
2022-09-17T15:22:29.843Z,2.70
2022-09-17T15:25:02.380Z,2.50
2022-09-17T15:27:33.886Z,3.40
2022-09-17T15:30:15.125Z,2.70
2022-09-17T15:32:56.559Z,3.30
2022-09-17T15:35:28.771Z,2.70
2022-09-17T15:40:50.131Z,2.90
2022-09-17T15:43:26.446Z,2.90
2022-09-17T15:45:54.622Z,3.00
2022-09-17T15:48:41.974Z,2.50
2022-09-17T15:51:30.490Z,2.60
2022-09-17T15:54:05.744Z,2.90
2022-09-17T15:56:34.313Z,2.60
2022-09-17T15:59:05.069Z,2.60
2022-09-17T16:01:39.350Z,2.40
2022-09-17T16:04:17.675Z,4.00
2022-09-17T16:07:12.958Z,3.40
2022-09-17T16:09:46.057Z,3.40
2022-09-17T16:12:16.216Z,3.20
2022-09-17T16:14:45.176Z,2.90
2022-09-17T16:17:28.336Z,3.60
2022-09-17T16:19:56.799Z,3.40
2022-09-17T16:22:23.888Z,3.10
2022-09-17T16:24:50.946Z,3.30
2022-09-17T16:27:25.285Z,3.40
2022-09-17T16:29:58.287Z,3.00
2022-09-17T16:32:25.230Z,3.70
2022-09-17T16:34:52.200Z,3.30
2022-09-17T16:37:19.109Z,2.80
2022-09-17T16:39:46.134Z,2.70
2022-09-17T16:42:13.054Z,2.90
2022-09-17T16:44:40.242Z,2.80
2022-09-17T16:47:07.301Z,2.90
2022-09-17T16:49:34.741Z,2.60
2022-09-17T16:52:02.064Z,2.90
2022-09-17T16:54:29.040Z,2.80
2022-09-17T16:56:56.205Z,2.80
2022-09-17T16:59:25.733Z,2.70
2022-09-17T17:01:52.806Z,2.90
2022-09-17T17:04:21.466Z,2.80
2022-09-17T17:06:48.595Z,2.50
2022-09-17T17:09:15.687Z,3.10
2022-09-17T17:11:42.764Z,2.40
2022-09-17T17:14:14.541Z,2.70
2022-09-17T17:16:43.730Z,2.20
2022-09-17T17:19:11.100Z,2.90
2022-09-17T17:21:39.024Z,2.80
2022-09-17T17:24:07.124Z,2.40
2022-09-17T17:26:34.864Z,2.50
2022-09-17T17:29:03.108Z,2.50
2022-09-17T17:31:30.230Z,2.70
2022-09-17T17:33:58.449Z,2.30
2022-09-17T17:36:25.437Z,2.60
2022-09-17T17:38:57.135Z,2.20
2022-09-17T17:41:26.476Z,2.70
2022-09-17T17:43:54.983Z,2.80
2022-09-17T17:46:23.407Z,2.70
2022-09-17T17:48:51.525Z,2.60
2022-09-17T17:51:19.542Z,2.20
2022-09-17T17:53:47.022Z,2.50
2022-09-17T17:56:14.098Z,2.50
2022-09-17T17:58:41.362Z,2.70
2022-09-17T18:01:21.852Z,2.40
2022-09-17T18:03:50.150Z,2.60
2022-09-17T18:06:17.279Z,2.60
2022-09-17T18:08:44.873Z,2.50
2022-09-17T18:11:12.537Z,2.30
2022-09-17T18:13:40.442Z,2.50
2022-09-17T18:16:09.279Z,2.50
2022-09-17T18:18:44.200Z,2.50
2022-09-17T18:21:17.640Z,2.70
2022-09-17T18:23:45.300Z,2.70
2022-09-17T18:26:14.779Z,2.50
2022-09-17T18:28:42.166Z,2.50
2022-09-17T18:31:27.427Z,2.40
2022-09-17T18:33:58.525Z,2.60
2022-09-17T18:36:29.781Z,2.30
2022-09-17T18:39:44.636Z,2.50
2022-09-17T18:41:54.562Z,2.30
2022-09-17T18:44:22.587Z,2.70
2022-09-17T18:46:51.470Z,2.30
2022-09-17T18:49:18.969Z,2.50
2022-09-17T18:51:46.812Z,2.20
2022-09-17T18:54:14.185Z,2.40
2022-09-17T18:56:41.942Z,2.40
2022-09-17T18:59:10.423Z,2.30
2022-09-17T19:01:37.683Z,2.00
2022-09-17T19:04:07.732Z,2.00
2022-09-17T19:06:35.773Z,2.30
2022-09-17T19:09:06.438Z,2.30
2022-09-17T19:11:36.577Z,2.00
2022-09-17T19:14:03.863Z,2.10
2022-09-17T19:16:30.930Z,2.40
2022-09-17T19:18:57.962Z,2.10
2022-09-17T19:21:24.929Z,2.30
2022-09-17T19:23:52.943Z,2.40
2022-09-17T19:26:23.675Z,2.30
2022-09-17T19:28:55.706Z,2.10
2022-09-17T19:31:23.058Z,2.00
2022-09-17T19:33:50.702Z,1.80
2022-09-17T19:36:19.797Z,2.60
2022-09-17T19:38:47.326Z,2.30
2022-09-17T19:41:16.536Z,2.10
2022-09-17T19:43:43.745Z,2.20
2022-09-17T19:46:16.708Z,2.10
2022-09-17T19:48:45.990Z,2.10
2022-09-17T19:51:13.303Z,2.10
2022-09-17T19:53:40.791Z,2.00
2022-09-17T19:56:10.985Z,2.40
2022-09-17T19:58:38.063Z,1.90
2022-09-17T20:01:05.113Z,2.00
2022-09-17T20:03:32.224Z,2.00
2022-09-17T20:06:05.082Z,2.10
2022-09-17T20:08:32.833Z,1.90
2022-09-17T20:11:07.922Z,2.30
2022-09-17T20:13:35.518Z,2.30
2022-09-17T20:16:06.936Z,2.00
2022-09-17T20:18:35.538Z,2.10
2022-09-17T20:21:20.634Z,1.90
2022-09-17T20:23:47.962Z,2.40
2022-09-17T20:26:16.420Z,2.10
2022-09-17T20:28:44.249Z,2.30
2022-09-17T20:31:12.413Z,1.80
2022-09-17T20:33:39.895Z,1.90
2022-09-17T20:36:11.242Z,2.10
2022-09-17T20:39:10.621Z,2.20
2022-09-17T20:41:25.876Z,2.30
2022-09-17T20:43:54.545Z,1.90
2022-09-17T20:46:28.378Z,2.30
2022-09-17T20:48:57.897Z,2.10
2022-09-17T20:51:28.161Z,2.10
2022-09-17T20:53:57.526Z,2.10
2022-09-17T20:56:27.689Z,2.10
2022-09-17T20:59:03.385Z,2.10
2022-09-17T21:01:34.812Z,1.90
2022-09-17T21:04:06.984Z,2.20
2022-09-17T21:06:43.031Z,2.40
2022-09-17T21:09:12.449Z,2.00
2022-09-17T21:11:39.608Z,2.30
2022-09-17T21:14:06.770Z,1.70
2022-09-17T21:16:33.877Z,1.80
2022-09-17T21:19:05.002Z,2.00
2022-09-17T21:21:34.614Z,2.00
2022-09-17T21:24:03.785Z,2.10
2022-09-17T21:26:32.743Z,2.20
2022-09-17T21:28:59.767Z,2.00
2022-09-17T21:31:32.294Z,2.30
2022-09-17T21:34:07.992Z,2.00
2022-09-17T21:36:37.495Z,2.10
2022-09-17T21:39:16.715Z,2.30
2022-09-17T21:41:45.185Z,2.20
2022-09-17T21:44:12.558Z,2.20
2022-09-17T21:46:43.272Z,2.10
2022-09-17T21:49:11.530Z,1.90
2022-09-17T21:51:41.986Z,2.00
2022-09-17T21:54:18.116Z,2.30
2022-09-17T21:57:12.425Z,2.20
2022-09-17T21:59:51.040Z,2.40
2022-09-17T22:02:47.794Z,2.00
2022-09-17T22:05:49.770Z,2.30
2022-09-17T22:08:19.539Z,2.30
2022-09-17T22:10:46.688Z,2.40
2022-09-17T22:13:13.881Z,2.30
2022-09-17T22:15:45.788Z,2.10
2022-09-17T22:18:15.291Z,2.40
2022-09-17T22:20:42.671Z,2.10
2022-09-17T22:23:40.128Z,2.00
2022-09-17T22:26:08.119Z,2.10
2022-09-17T22:28:35.625Z,2.10
2022-09-17T22:31:05.886Z,1.80
2022-09-17T22:33:41.026Z,2.10
2022-09-17T22:36:12.920Z,2.40
2022-09-17T22:38:46.214Z,1.80
2022-09-17T22:41:17.833Z,1.80
2022-09-17T22:43:48.526Z,2.10
2022-09-17T22:46:30.936Z,2.20
2022-09-17T22:48:58.620Z,2.20
2022-09-17T22:51:35.287Z,2.40
2022-09-17T22:54:07.170Z,2.10
2022-09-17T22:56:36.553Z,2.20
2022-09-17T22:59:14.920Z,1.80
2022-09-17T23:01:42.569Z,2.30
2022-09-17T23:04:10.314Z,2.00
2022-09-17T23:06:42.477Z,2.00
2022-09-17T23:09:14.195Z,2.40
2022-09-17T23:11:41.879Z,2.10
2022-09-17T23:14:12.538Z,1.70
2022-09-17T23:16:45.746Z,1.90
2022-09-17T23:19:13.503Z,2.40
2022-09-17T23:21:40.913Z,2.00
2022-09-17T23:24:09.144Z,2.10
2022-09-17T23:26:39.611Z,2.20
2022-09-17T23:29:09.755Z,2.00
2022-09-17T23:31:37.139Z,1.90
2022-09-17T23:34:06.322Z,1.70
2022-09-17T23:36:40.135Z,2.10
2022-09-17T23:39:09.523Z,1.90
2022-09-17T23:41:39.058Z,2.30
2022-09-17T23:44:15.257Z,2.10
2022-09-17T23:46:49.809Z,1.70
2022-09-17T23:49:16.923Z,2.30
2022-09-17T23:51:44.873Z,1.80
2022-09-17T23:54:16.814Z,2.00
2022-09-17T23:56:44.106Z,2.00
2022-09-17T23:59:11.956Z,2.00
